Aviation Digital Data Service (ADDS)

Output produced by METARs form (0750 UTC 20 January 2017)
found at http://aviationweather.gov/adds/metars/
 
KCKB 200539Z 2006/2106 VRB03KT P6SM OVC060 
     TEMPO 2009/2011 -RA BKN045 
     FM201100 12004KT 6SM -RA SCT025 OVC040 
     TEMPO 2012/2015 3SM -RA BR OVC025 
     FM201600 19006KT 6SM -SHRA OVC035 
     FM201800 22007KT P6SM BKN040 
     FM202300 19004KT P6SM SCT040